Time;durP1;ratioP1;P1;durP2;ratioP2;P2;SDS_P1;SDS_P2;PMS_P1;PMS_P2;Temp;Humidity;BMP_temperature;BMP_pressure;BME280_temperature;BME280_humidity;BME280_pressure;Samples;Min_cycle;Max_cycle;Signal;HPM_P1;HPM_P2
2020/12/12 00:01:58;;;;;;;22.47;19.60;;;3.60;99.90;;;;;;5070362;28;20473;-79
2020/12/12 00:04:26;;;;;;;20.73;18.53;;;3.60;99.90;;;;;;5070424;28;20460;-79
2020/12/12 00:06:54;;;;;;;21.43;19.13;;;3.60;99.90;;;;;;5070559;28;20453;-79
2020/12/12 00:09:21;;;;;;;21.17;18.03;;;3.60;99.90;;;;;;5105680;28;20473;-79
2020/12/12 00:11:50;;;;;;;21.87;17.90;;;3.60;99.90;;;;;;5069640;28;20808;-79
2020/12/12 00:14:17;;;;;;;21.00;17.53;;;3.60;99.90;;;;;;5067459;28;20434;-79
2020/12/12 00:16:44;;;;;;;21.13;18.47;;;3.60;99.90;;;;;;5067205;28;20795;-79
2020/12/12 00:19:12;;;;;;;20.50;18.13;;;3.60;99.90;;;;;;5066315;28;20454;-79
2020/12/12 00:21:39;;;;;;;22.30;18.30;;;3.60;99.90;;;;;;5067645;28;20462;-79
2020/12/12 00:24:07;;;;;;;24.33;17.70;;;3.60;99.90;;;;;;5101125;28;20982;-79
2020/12/12 00:26:34;;;;;;;19.90;17.80;;;3.60;99.90;;;;;;5068579;28;20505;-79
2020/12/12 00:29:02;;;;;;;20.93;18.83;;;3.60;99.90;;;;;;5066733;28;20864;-80
2020/12/12 00:31:29;;;;;;;22.90;17.70;;;3.60;99.90;;;;;;5065077;28;20473;-79
2020/12/12 00:33:56;;;;;;;21.33;19.00;;;3.60;99.90;;;;;;5065966;28;20472;-79
2020/12/12 00:36:23;;;;;;;22.40;20.10;;;3.60;99.90;;;;;;5065884;28;20525;-79
2020/12/12 00:38:50;;;;;;;22.40;19.15;;;3.60;99.90;;;;;;5065403;28;20482;-79
2020/12/12 00:41:18;;;;;;;21.60;18.37;;;3.60;99.90;;;;;;5065732;28;20219;-79
2020/12/12 00:43:46;;;;;;;21.03;18.80;;;3.60;99.90;;;;;;5068191;28;20446;-79
2020/12/12 00:46:13;;;;;;;22.40;19.20;;;3.60;99.90;;;;;;5068320;28;20537;-79
2020/12/12 00:48:43;;;;;;;23.60;19.00;;;3.60;99.90;;;;;;5070110;28;20441;-79
2020/12/12 00:51:11;;;;;;;20.77;17.23;;;3.60;99.90;;;;;;5068506;28;20593;-79
2020/12/12 00:53:38;;;;;;;23.40;18.53;;;3.60;99.90;;;;;;5068826;28;20446;-79
2020/12/12 00:56:06;;;;;;;24.33;17.50;;;3.60;99.90;;;;;;5069428;28;20449;-79
2020/12/12 00:58:34;;;;;;;22.33;19.93;;;3.60;99.90;;;;;;5070532;28;20521;-79
2020/12/12 01:01:01;;;;;;;22.30;18.93;;;3.60;99.90;;;;;;5069644;28;20883;-79
2020/12/12 01:03:28;;;;;;;22.47;19.30;;;3.60;99.90;;;;;;5069368;28;20453;-79
2020/12/12 01:05:55;;;;;;;27.97;20.30;;;3.60;99.90;;;;;;5068591;28;20455;-79
2020/12/12 01:08:27;;;;;;;25.53;20.33;;;3.60;99.90;;;;;;5102087;28;20512;-79
2020/12/12 01:10:54;;;;;;;20.50;17.60;;;3.60;99.90;;;;;;5068013;28;21044;-79
2020/12/12 01:13:22;;;;;;;23.53;19.60;;;3.60;99.90;;;;;;5068219;28;20446;-79
2020/12/12 01:15:50;;;;;;;24.20;20.80;;;3.60;99.90;;;;;;5068482;28;20484;-79
2020/12/12 01:18:17;;;;;;;24.50;20.70;;;3.60;99.90;;;;;;5069423;28;20453;-79
2020/12/12 01:20:44;;;;;;;24.47;21.30;;;3.60;99.90;;;;;;5069273;28;20477;-79
2020/12/12 01:23:11;;;;;;;26.90;21.17;;;3.60;99.90;;;;;;5070339;28;20449;-79
2020/12/12 01:25:39;;;;;;;24.90;19.37;;;3.60;99.90;;;;;;5066000;28;20811;-79
2020/12/12 01:28:07;;;;;;;25.63;20.60;;;3.60;99.90;;;;;;5057292;28;21009;-80
2020/12/12 01:30:34;;;;;;;19.23;17.07;;;3.60;99.90;;;;;;5058744;28;20508;-80
2020/12/12 01:33:03;;;;;;;24.10;20.87;;;3.60;99.90;;;;;;5057823;28;20458;-79
2020/12/12 01:35:30;;;;;;;27.27;22.10;;;3.60;99.90;;;;;;5056542;28;20977;-79
2020/12/12 01:37:58;;;;;;;24.40;19.33;;;3.60;99.90;;;;;;5057637;28;20438;-79
2020/12/12 01:40:25;;;;;;;28.50;23.20;;;3.60;99.90;;;;;;5057783;28;20946;-79
2020/12/12 01:42:52;;;;;;;27.60;22.73;;;3.60;99.90;;;;;;5058665;28;20481;-79
2020/12/12 01:45:19;;;;;;;30.00;22.70;;;3.60;99.90;;;;;;5058659;28;20441;-79
2020/12/12 01:47:46;;;;;;;26.70;19.57;;;3.60;99.90;;;;;;5058041;28;20506;-80
2020/12/12 01:50:15;;;;;;;29.00;21.90;;;3.60;99.90;;;;;;5056948;28;20481;-79
2020/12/12 01:52:50;;;;;;;29.67;21.40;;;3.60;99.90;;;;;;5057379;28;20972;-79
2020/12/12 01:55:19;;;;;;;26.80;20.90;;;3.60;99.90;;;;;;5055957;28;20475;-80
2020/12/12 01:57:49;;;;;;;27.77;22.90;;;3.60;99.90;;;;;;5055859;28;20447;-79
2020/12/12 02:00:16;;;;;;;28.03;20.63;;;3.60;99.90;;;;;;5055607;28;20470;-79
2020/12/12 02:02:47;;;;;;;25.07;19.70;;;3.60;99.90;;;;;;5055789;28;20452;-79
2020/12/12 02:05:41;;;;;;;23.57;19.83;;;3.70;99.90;;;;;;5057726;28;20479;-79
2020/12/12 02:08:11;;;;;;;26.00;22.70;;;3.60;99.90;;;;;;5056441;28;20449;-79
2020/12/12 02:10:40;;;;;;;30.50;23.27;;;3.70;99.90;;;;;;5056994;28;20478;-79
2020/12/12 02:13:08;;;;;;;27.83;24.40;;;3.70;99.90;;;;;;5056071;28;20454;-79
2020/12/12 02:15:36;;;;;;;27.37;23.27;;;3.70;99.90;;;;;;5056121;28;20459;-79
2020/12/12 02:18:05;;;;;;;28.60;24.70;;;3.70;99.90;;;;;;5055591;28;20546;-79
2020/12/12 02:20:34;;;;;;;30.00;24.20;;;3.70;99.90;;;;;;5054881;28;20458;-79
2020/12/12 02:23:02;;;;;;;32.40;24.77;;;3.70;99.90;;;;;;5054244;28;20503;-79
2020/12/12 02:25:29;;;;;;;28.93;24.17;;;3.70;99.90;;;;;;5055181;28;20442;-79
2020/12/12 02:27:57;;;;;;;28.10;22.60;;;3.70;99.90;;;;;;5054775;28;20466;-79
2020/12/12 02:30:25;;;;;;;29.50;24.73;;;3.70;99.90;;;;;;5053657;28;20488;-79
2020/12/12 02:32:52;;;;;;;31.70;25.07;;;3.70;99.90;;;;;;5053894;28;20539;-80
2020/12/12 02:35:19;;;;;;;30.47;25.40;;;3.70;99.90;;;;;;5053511;28;20544;-80
2020/12/12 02:37:46;;;;;;;31.53;26.50;;;3.70;99.90;;;;;;5053458;28;20526;-80
2020/12/12 02:40:14;;;;;;;34.10;25.60;;;3.70;99.90;;;;;;5055711;28;20511;-80
2020/12/12 02:42:41;;;;;;;32.07;25.00;;;3.70;99.90;;;;;;5056684;28;20548;-80
2020/12/12 02:45:09;;;;;;;32.00;23.40;;;3.70;99.90;;;;;;5055937;28;20485;-79
2020/12/12 02:47:36;;;;;;;33.87;26.80;;;3.70;99.90;;;;;;5089725;28;20456;-80
2020/12/12 02:50:10;;;;;;;28.90;22.30;;;3.70;99.90;;;;;;5055576;28;20564;-80
2020/12/12 02:52:39;;;;;;;31.10;26.10;;;3.80;99.90;;;;;;5055000;28;20469;-80
2020/12/12 02:55:08;;;;;;;31.60;24.80;;;3.70;99.90;;;;;;5055869;28;20549;-80
2020/12/12 02:57:37;;;;;;;33.10;25.70;;;3.80;99.90;;;;;;5054927;28;20439;-79
2020/12/12 03:00:08;;;;;;;32.80;24.80;;;3.80;99.90;;;;;;5053748;28;20445;-80
2020/12/12 03:02:41;;;;;;;32.30;24.90;;;3.80;99.90;;;;;;5055862;28;20982;-79
2020/12/12 03:05:08;;;;;;;36.67;28.40;;;3.80;99.90;;;;;;5056095;28;20426;-80
2020/12/12 03:07:36;;;;;;;35.30;28.37;;;3.80;99.90;;;;;;5055271;28;20984;-80
2020/12/12 03:10:06;;;;;;;36.70;28.87;;;3.80;99.90;;;;;;5056399;28;20465;-80
2020/12/12 03:12:34;;;;;;;35.83;28.30;;;3.80;99.90;;;;;;5054847;28;20553;-80
2020/12/12 03:15:04;;;;;;;37.33;27.17;;;3.80;99.90;;;;;;5055311;28;20469;-80
2020/12/12 03:17:31;;;;;;;35.57;28.43;;;3.80;99.90;;;;;;5056290;28;20437;-79
2020/12/12 03:19:59;;;;;;;34.93;27.30;;;3.80;99.90;;;;;;5055428;28;20453;-80
2020/12/12 03:22:26;;;;;;;39.40;27.27;;;3.80;99.90;;;;;;5054751;28;20450;-80
2020/12/12 03:24:53;;;;;;;38.10;31.43;;;3.80;99.90;;;;;;5055236;28;21046;-80
2020/12/12 03:27:20;;;;;;;33.90;26.83;;;3.80;99.90;;;;;;5054940;28;20507;-80
2020/12/12 03:29:47;;;;;;;34.53;25.93;;;3.80;99.90;;;;;;5056329;28;20521;-80
2020/12/12 03:32:31;;;;;;;35.17;27.20;;;3.80;99.90;;;;;;5055112;28;20438;-80
2020/12/12 03:34:58;;;;;;;36.43;27.73;;;3.80;99.90;;;;;;5091029;28;20451;-80
2020/12/12 03:37:25;;;;;;;37.33;29.77;;;3.80;99.90;;;;;;5059538;28;20479;-80
2020/12/12 03:39:53;;;;;;;36.70;29.50;;;3.90;99.90;;;;;;5058959;28;20450;-80
2020/12/12 03:42:20;;;;;;;36.33;29.07;;;4.00;99.90;;;;;;5059339;28;20453;-80
2020/12/12 03:44:47;;;;;;;37.10;29.13;;;3.90;99.90;;;;;;5059522;28;20485;-80
2020/12/12 03:47:14;;;;;;;37.93;28.93;;;3.90;99.90;;;;;;5092661;28;20822;-79
2020/12/12 03:49:42;;;;;;;41.33;28.17;;;3.90;99.90;;;;;;5059223;28;20472;-80
2020/12/12 03:52:10;;;;;;;37.10;26.80;;;3.90;99.90;;;;;;5059075;28;20496;-80
2020/12/12 03:54:37;;;;;;;37.73;27.47;;;3.90;99.90;;;;;;5059627;28;20508;-80
2020/12/12 03:57:04;;;;;;;37.37;29.37;;;3.90;99.90;;;;;;5059020;28;20490;-80
2020/12/12 03:59:31;;;;;;;34.63;26.10;;;3.90;99.90;;;;;;5059069;28;20438;-80
2020/12/12 04:01:59;;;;;;;38.87;30.70;;;3.90;99.90;;;;;;5059057;28;20477;-80
2020/12/12 04:04:27;;;;;;;41.83;28.83;;;3.90;99.90;;;;;;5059418;28;20473;-80
2020/12/12 04:06:55;;;;;;;37.80;30.40;;;3.90;99.90;;;;;;5059617;28;20539;-80
2020/12/12 04:09:22;;;;;;;37.73;29.73;;;3.90;99.90;;;;;;5058842;28;20474;-80
2020/12/12 04:11:49;;;;;;;40.40;31.10;;;3.90;99.90;;;;;;5058648;28;20476;-80
2020/12/12 04:14:16;;;;;;;41.17;30.80;;;3.90;99.90;;;;;;5059499;28;20445;-80
2020/12/12 04:16:43;;;;;;;35.50;27.77;;;3.90;99.90;;;;;;5059053;28;20517;-80
2020/12/12 04:19:11;;;;;;;36.87;29.93;;;3.90;99.90;;;;;;5059802;28;20464;-80
2020/12/12 04:21:38;;;;;;;39.80;29.17;;;3.90;99.90;;;;;;5092604;28;20462;-80
2020/12/12 04:24:06;;;;;;;34.93;27.63;;;3.90;99.90;;;;;;5060473;28;20445;-80
2020/12/12 04:26:33;;;;;;;43.00;30.10;;;3.90;99.90;;;;;;5060889;28;20505;-79
2020/12/12 04:29:00;;;;;;;41.00;29.40;;;3.90;99.90;;;;;;5059802;28;20441;-80
2020/12/12 04:31:28;;;;;;;39.33;27.97;;;3.90;99.90;;;;;;5058606;28;20478;-80
2020/12/12 04:33:55;;;;;;;37.10;30.97;;;3.90;99.90;;;;;;5059584;28;20441;-80
2020/12/12 04:36:22;;;;;;;40.23;28.90;;;3.90;99.90;;;;;;5060040;28;20949;-80
2020/12/12 04:38:50;;;;;;;37.97;29.30;;;3.80;99.90;;;;;;5061186;28;20814;-80
2020/12/12 04:41:19;;;;;;;37.90;28.13;;;3.90;99.90;;;;;;5058537;28;20465;-80
2020/12/12 04:43:46;;;;;;;42.80;32.83;;;3.90;99.90;;;;;;5060284;28;20931;-79
2020/12/12 04:46:14;;;;;;;44.73;31.43;;;3.90;99.90;;;;;;5059280;28;20474;-80
2020/12/12 04:48:41;;;;;;;43.93;30.60;;;3.90;99.90;;;;;;5059455;28;20454;-81
2020/12/12 04:51:09;;;;;;;45.17;31.57;;;3.90;99.90;;;;;;5058688;28;20539;-79
2020/12/12 04:53:37;;;;;;;43.63;35.00;;;3.90;99.90;;;;;;5056854;28;20450;-80
2020/12/12 04:56:05;;;;;;;42.97;33.87;;;3.90;99.90;;;;;;5056919;28;20457;-80
2020/12/12 04:58:38;;;;;;;43.80;34.30;;;3.90;99.90;;;;;;5056909;28;20879;-80
2020/12/12 05:01:05;;;;;;;41.60;30.90;;;3.90;99.90;;;;;;5057339;28;20499;-80
2020/12/12 05:03:37;;;;;;;46.47;31.73;;;3.90;99.90;;;;;;5056677;28;20452;-80
2020/12/12 05:06:04;;;;;;;44.13;32.50;;;3.90;99.90;;;;;;5091302;28;20815;-80
2020/12/12 05:08:31;;;;;;;41.97;34.03;;;3.90;99.90;;;;;;5057406;28;20447;-80
2020/12/12 05:11:02;;;;;;;45.47;33.40;;;3.90;99.90;;;;;;5057073;28;20982;-80
2020/12/12 05:13:30;;;;;;;43.63;30.93;;;3.90;99.90;;;;;;5056459;28;20476;-79
2020/12/12 05:16:00;;;;;;;43.73;31.97;;;3.90;99.90;;;;;;5056762;28;20438;-80
2020/12/12 05:18:27;;;;;;;42.70;32.20;;;3.90;99.90;;;;;;5056803;28;20442;-79
2020/12/12 05:20:55;;;;;;;41.87;30.50;;;3.90;99.90;;;;;;5055271;28;20475;-80
2020/12/12 05:23:24;;;;;;;43.60;33.10;;;3.90;99.90;;;;;;5057724;28;20513;-80
2020/12/12 05:25:53;;;;;;;41.50;31.70;;;3.90;99.90;;;;;;5056295;28;20461;-79
2020/12/12 05:28:21;;;;;;;39.53;29.97;;;3.90;99.90;;;;;;5055662;28;20456;-79
2020/12/12 05:30:50;;;;;;;44.03;31.63;;;3.90;99.90;;;;;;5055744;28;20482;-79
2020/12/12 05:33:21;;;;;;;44.90;32.57;;;3.90;99.90;;;;;;5056924;28;20525;-80
2020/12/12 05:35:49;;;;;;;39.77;31.20;;;3.90;99.90;;;;;;5057003;28;20846;-80
2020/12/12 05:38:16;;;;;;;40.70;30.73;;;3.90;99.90;;;;;;5055527;28;20446;-79
2020/12/12 05:40:48;;;;;;;38.27;29.93;;;3.90;99.90;;;;;;5056655;28;20489;-80
2020/12/12 05:43:16;;;;;;;44.33;30.43;;;3.90;99.90;;;;;;5057438;28;20430;-80
2020/12/12 05:45:43;;;;;;;42.60;32.00;;;3.90;99.90;;;;;;5057179;28;20450;-80
2020/12/12 05:48:12;;;;;;;42.37;34.13;;;3.90;99.90;;;;;;5055720;28;20792;-80
2020/12/12 05:50:41;;;;;;;44.53;35.17;;;3.90;99.90;;;;;;5057377;28;20473;-79
2020/12/12 05:53:08;;;;;;;40.77;30.30;;;3.90;99.90;;;;;;5056470;28;20837;-79
2020/12/12 05:55:35;;;;;;;45.50;35.10;;;3.90;99.90;;;;;;5056512;28;20457;-79
2020/12/12 05:58:03;;;;;;;46.50;33.80;;;3.90;99.90;;;;;;5056634;28;20432;-80
2020/12/12 06:00:31;;;;;;;44.80;34.57;;;4.00;99.90;;;;;;5055222;28;20518;-79
2020/12/12 06:03:06;;;;;;;46.57;34.13;;;4.00;99.90;;;;;;5055686;28;20453;-80
2020/12/12 06:05:34;;;;;;;45.58;33.17;;;4.00;99.90;;;;;;5054715;28;20451;-80
2020/12/12 06:08:04;;;;;;;48.70;34.30;;;3.90;99.90;;;;;;5057345;28;20234;-80
2020/12/12 06:10:33;;;;;;;43.23;32.40;;;3.90;99.90;;;;;;5057969;28;20477;-80
2020/12/12 06:13:02;;;;;;;46.53;33.10;;;3.90;99.90;;;;;;5057859;28;20929;-80
2020/12/12 06:15:35;;;;;;;41.93;31.83;;;3.90;99.90;;;;;;5056613;28;20485;-80
2020/12/12 06:18:31;;;;;;;47.20;34.70;;;3.90;99.90;;;;;;5055609;28;20506;-80
2020/12/12 06:21:06;;;;;;;41.33;33.77;;;3.90;99.90;;;;;;5058079;28;20450;-79
2020/12/12 06:23:37;;;;;;;41.37;32.37;;;3.90;99.90;;;;;;5089029;28;20484;-80
2020/12/12 06:26:05;;;;;;;41.57;30.93;;;3.90;99.90;;;;;;5057754;28;20525;-80
2020/12/12 06:28:40;;;;;;;42.40;31.23;;;3.90;99.90;;;;;;5057463;28;20874;-80
2020/12/12 06:31:08;;;;;;;46.53;34.00;;;3.90;99.90;;;;;;5057295;28;20496;-80
2020/12/12 06:33:48;;;;;;;47.63;37.13;;;3.90;99.90;;;;;;5057595;28;20801;-80
2020/12/12 06:36:23;;;;;;;45.30;31.80;;;3.90;99.90;;;;;;5090052;28;20452;-80
2020/12/12 06:39:14;;;;;;;46.70;35.17;;;3.90;99.90;;;;;;5089529;28;20456;-80
2020/12/12 06:41:41;;;;;;;44.80;34.43;;;3.90;99.90;;;;;;5056418;28;20512;-80
2020/12/12 06:44:09;;;;;;;41.90;30.70;;;3.90;99.90;;;;;;5056622;28;20476;-80
2020/12/12 06:46:53;;;;;;;43.20;30.43;;;3.90;99.90;;;;;;5056643;28;20477;-80
2020/12/12 06:49:21;;;;;;;42.73;34.50;;;3.90;99.90;;;;;;5090143;28;20552;-80
2020/12/12 06:51:49;;;;;;;46.43;34.20;;;3.90;99.90;;;;;;5089602;28;20569;-80
2020/12/12 06:54:17;;;;;;;47.70;35.20;;;3.90;99.90;;;;;;5056429;28;20518;-80
2020/12/12 06:56:44;;;;;;;39.03;33.50;;;3.90;99.90;;;;;;5057763;28;20533;-80
2020/12/12 06:59:29;;;;;;;45.23;34.47;;;3.90;99.90;;;;;;5056274;28;20446;-80
2020/12/12 07:01:57;;;;;;;38.47;29.87;;;3.90;99.90;;;;;;5055974;28;20520;-80
2020/12/12 07:04:27;;;;;;;41.47;30.90;;;3.90;99.90;;;;;;5055853;28;20442;-80
2020/12/12 07:07:03;;;;;;;42.27;33.20;;;3.90;99.90;;;;;;5056167;28;20530;-80
2020/12/12 07:09:31;;;;;;;44.37;31.83;;;3.90;99.90;;;;;;5056010;28;20441;-80
2020/12/12 07:11:58;;;;;;;45.73;34.70;;;3.90;99.90;;;;;;5055827;28;20493;-80
2020/12/12 07:14:26;;;;;;;46.40;33.50;;;3.90;99.90;;;;;;5055601;28;20529;-80
2020/12/12 07:16:54;;;;;;;40.43;30.20;;;3.90;99.90;;;;;;5089437;28;20499;-80
2020/12/12 07:19:34;;;;;;;43.93;31.33;;;3.90;99.90;;;;;;5056464;28;20454;-80
2020/12/12 07:22:03;;;;;;;45.53;34.17;;;3.80;99.90;;;;;;5056089;28;20560;-80
2020/12/12 07:24:31;;;;;;;41.20;33.93;;;3.80;99.90;;;;;;5056334;28;20545;-80
2020/12/12 07:26:59;;;;;;;42.90;30.83;;;3.80;99.90;;;;;;5055825;28;20477;-80
2020/12/12 07:29:27;;;;;;;43.00;32.50;;;3.80;99.90;;;;;;5055886;28;20466;-80
2020/12/12 07:31:55;;;;;;;43.70;30.77;;;3.80;99.90;;;;;;5056292;28;20466;-80
2020/12/12 07:34:24;;;;;;;45.57;31.80;;;3.80;99.90;;;;;;5056016;28;20455;-80
2020/12/12 07:37:00;;;;;;;38.73;29.97;;;3.80;99.90;;;;;;5055703;28;20978;-80
2020/12/12 07:39:30;;;;;;;47.80;30.87;;;3.80;99.90;;;;;;5057645;28;20433;-80
2020/12/12 07:41:59;;;;;;;42.57;33.77;;;3.80;99.90;;;;;;5056446;28;20466;-80
2020/12/12 07:44:28;;;;;;;50.93;34.63;;;3.80;99.90;;;;;;5089581;28;20533;-80
2020/12/12 07:46:57;;;;;;;41.67;31.43;;;3.80;99.90;;;;;;5057370;28;20465;-80
2020/12/12 07:49:29;;;;;;;42.90;33.93;;;3.80;99.90;;;;;;5056187;28;20517;-79
2020/12/12 07:52:05;;;;;;;38.57;31.63;;;3.80;99.90;;;;;;5057398;28;20480;-80
2020/12/12 07:54:42;;;;;;;43.13;33.77;;;3.80;99.90;;;;;;5056675;28;20499;-80
2020/12/12 07:57:11;;;;;;;43.23;34.57;;;3.80;99.90;;;;;;5056145;28;20446;-80
2020/12/12 07:59:38;;;;;;;42.03;31.80;;;3.80;99.90;;;;;;5057337;28;20417;-80
2020/12/12 08:02:07;;;;;;;38.93;31.20;;;3.80;99.90;;;;;;5058155;28;20466;-80
2020/12/12 08:04:35;;;;;;;46.90;34.53;;;3.80;99.90;;;;;;5058151;28;20430;-80
2020/12/12 08:07:10;;;;;;;41.87;32.00;;;3.80;99.90;;;;;;5091031;28;20442;-80
2020/12/12 08:09:49;;;;;;;44.90;34.97;;;3.80;99.90;;;;;;5056614;28;20346;-80
2020/12/12 08:12:28;;;;;;;40.67;31.83;;;3.80;99.90;;;;;;5055816;28;20295;-79
2020/12/12 08:14:57;;;;;;;41.30;33.47;;;3.90;99.90;;;;;;5054884;28;20433;-79
2020/12/12 08:17:28;;;;;;;41.80;32.43;;;3.90;99.90;;;;;;5057945;28;20487;-80
2020/12/12 08:19:55;;;;;;;43.47;32.47;;;3.90;99.90;;;;;;5054852;28;20493;-80
2020/12/12 08:22:26;;;;;;;41.13;30.97;;;4.00;99.90;;;;;;5058272;28;20192;-80
2020/12/12 08:24:55;;;;;;;41.10;32.40;;;4.00;99.90;;;;;;5060674;28;20444;-80
2020/12/12 08:27:24;;;;;;;42.47;32.83;;;4.00;99.90;;;;;;5059309;28;20456;-80
2020/12/12 08:29:53;;;;;;;40.90;31.65;;;4.00;99.90;;;;;;5058852;28;20543;-80
2020/12/12 08:32:31;;;;;;;40.83;31.70;;;4.00;99.90;;;;;;5061366;28;20207;-80
2020/12/12 08:35:16;;;;;;;37.63;29.43;;;4.00;99.90;;;;;;5062325;28;20444;-80
2020/12/12 08:37:55;;;;;;;40.60;30.87;;;4.00;99.90;;;;;;5060498;28;20441;-80
2020/12/12 08:40:27;;;;;;;42.73;33.67;;;4.00;99.90;;;;;;5094288;28;20535;-80
2020/12/12 08:42:58;;;;;;;39.93;30.10;;;4.00;99.90;;;;;;5060591;28;20437;-80
2020/12/12 08:45:27;;;;;;;40.40;32.30;;;4.00;99.90;;;;;;5060700;28;20938;-80
2020/12/12 08:48:02;;;;;;;36.50;29.03;;;4.00;99.90;;;;;;5061657;28;20490;-80
2020/12/12 08:50:42;;;;;;;40.00;29.87;;;4.00;99.90;;;;;;5060458;28;20562;-80
2020/12/12 08:53:33;;;;;;;39.73;31.87;;;4.00;99.90;;;;;;5060812;28;20460;-80
2020/12/12 08:56:07;;;;;;;43.10;32.00;;;4.00;99.90;;;;;;5061735;28;20577;-80
2020/12/12 08:58:37;;;;;;;38.60;28.33;;;4.00;99.90;;;;;;5060751;28;20903;-80
2020/12/12 09:01:16;;;;;;;42.60;30.20;;;4.00;99.90;;;;;;5060695;28;20987;-80
2020/12/12 09:03:54;;;;;;;40.80;30.83;;;4.00;99.90;;;;;;5061576;28;20989;-80
2020/12/12 09:06:22;;;;;;;43.13;31.57;;;4.00;99.90;;;;;;5060619;28;20437;-80
2020/12/12 09:09:05;;;;;;;39.63;31.60;;;4.10;99.90;;;;;;5061343;28;20827;-80
2020/12/12 09:11:33;;;;;;;42.63;33.30;;;4.10;99.90;;;;;;5061156;28;21026;-80
2020/12/12 09:14:01;;;;;;;36.73;28.03;;;4.10;99.90;;;;;;5062800;28;20410;-80
2020/12/12 09:16:28;;;;;;;38.43;29.53;;;4.10;99.90;;;;;;5060575;28;20453;-80
2020/12/12 09:18:57;;;;;;;37.53;28.13;;;4.10;99.90;;;;;;5094227;28;20480;-80
2020/12/12 09:21:24;;;;;;;42.77;31.33;;;4.10;99.90;;;;;;5061194;28;20462;-80
2020/12/12 09:23:52;;;;;;;37.37;30.97;;;4.10;99.90;;;;;;5061145;28;20439;-80
2020/12/12 09:26:20;;;;;;;38.07;30.07;;;4.10;99.90;;;;;;5060041;28;20476;-80
2020/12/12 09:28:48;;;;;;;40.30;30.00;;;4.10;99.90;;;;;;5059654;28;20438;-80
2020/12/12 09:31:17;;;;;;;39.10;31.80;;;4.10;99.90;;;;;;5058111;28;20470;-80
2020/12/12 09:33:45;;;;;;;42.27;33.00;;;4.10;99.90;;;;;;5057212;28;20456;-80
2020/12/12 09:36:12;;;;;;;38.00;28.83;;;4.10;99.90;;;;;;5056593;28;20489;-80
2020/12/12 09:38:43;;;;;;;43.23;30.93;;;4.10;99.90;;;;;;5063147;28;20426;-80
2020/12/12 09:41:11;;;;;;;34.97;29.43;;;4.10;99.90;;;;;;5095042;28;20538;-81
2020/12/12 09:43:38;;;;;;;39.00;32.37;;;4.10;99.90;;;;;;5062413;28;20520;-81
2020/12/12 09:46:07;;;;;;;36.57;28.87;;;4.10;99.90;;;;;;5063608;28;20452;-81
2020/12/12 09:48:36;;;;;;;37.57;29.10;;;4.20;99.90;;;;;;5063194;28;20446;-81
2020/12/12 09:51:04;;;;;;;40.80;29.87;;;4.10;99.90;;;;;;5063509;28;20457;-81
2020/12/12 09:53:31;;;;;;;36.40;30.13;;;4.20;99.90;;;;;;5064292;28;20472;-81
2020/12/12 09:55:58;;;;;;;38.07;27.80;;;4.20;99.90;;;;;;5063814;28;20484;-81
2020/12/12 09:58:25;;;;;;;38.77;30.03;;;4.10;99.90;;;;;;5072368;28;20442;-81
2020/12/12 10:00:53;;;;;;;38.10;30.43;;;4.20;99.90;;;;;;5059486;28;20505;-81
2020/12/12 10:03:21;;;;;;;36.97;28.60;;;4.20;99.90;;;;;;5060064;28;20966;-81
2020/12/12 10:05:48;;;;;;;37.50;30.77;;;4.20;99.90;;;;;;5059082;28;20910;-81
2020/12/12 10:08:16;;;;;;;39.83;31.37;;;4.20;99.90;;;;;;5060843;28;20803;-81
2020/12/12 10:10:43;;;;;;;39.43;31.50;;;4.20;99.90;;;;;;5058283;28;20576;-81
2020/12/12 10:13:11;;;;;;;42.23;31.70;;;4.20;99.90;;;;;;5058967;28;21041;-81
2020/12/12 10:15:38;;;;;;;39.50;29.70;;;4.20;99.90;;;;;;5092157;28;20450;-81
2020/12/12 10:18:08;;;;;;;36.37;31.43;;;4.20;99.90;;;;;;5058569;28;20460;-81
2020/12/12 10:20:37;;;;;;;38.37;29.03;;;4.30;99.90;;;;;;5059565;28;20454;-81
2020/12/12 10:23:05;;;;;;;37.93;29.43;;;4.30;99.90;;;;;;5092072;28;20529;-81
2020/12/12 10:25:32;;;;;;;34.77;29.73;;;4.30;99.90;;;;;;5058300;28;20986;-81
2020/12/12 10:28:08;;;;;;;33.70;28.23;;;4.30;99.90;;;;;;5058491;28;20507;-81
2020/12/12 10:30:36;;;;;;;33.10;28.40;;;4.30;99.90;;;;;;5058427;28;20821;-81
2020/12/12 10:33:03;;;;;;;40.27;29.87;;;4.20;99.90;;;;;;5059168;28;20470;-81
2020/12/12 10:35:31;;;;;;;34.03;28.20;;;4.30;99.90;;;;;;5093170;28;20466;-81
2020/12/12 10:37:59;;;;;;;36.67;30.27;;;4.30;99.90;;;;;;5058326;28;20454;-81
2020/12/12 10:40:31;;;;;;;41.80;29.90;;;4.30;99.90;;;;;;5057478;28;20492;-81
2020/12/12 10:42:58;;;;;;;42.23;32.10;;;4.30;99.90;;;;;;5058270;28;20993;-80
2020/12/12 10:45:26;;;;;;;35.73;29.10;;;4.40;99.90;;;;;;5091173;28;20448;-81
2020/12/12 10:47:53;;;;;;;39.00;29.93;;;4.40;99.90;;;;;;5058988;28;20500;-81
2020/12/12 10:50:22;;;;;;;34.65;28.85;;;4.40;99.90;;;;;;5060215;28;20414;-81
2020/12/12 10:52:50;;;;;;;32.70;28.70;;;4.40;99.90;;;;;;5057296;28;20250;-80
2020/12/12 10:55:20;;;;;;;34.80;29.60;;;4.40;99.90;;;;;;5057315;28;20449;-80
2020/12/12 10:57:47;;;;;;;36.93;29.63;;;4.50;99.90;;;;;;5054797;28;20481;-79
2020/12/12 11:00:22;;;;;;;34.97;29.20;;;4.50;99.90;;;;;;5053262;28;20519;-80
2020/12/12 11:02:50;;;;;;;33.27;27.27;;;4.50;99.90;;;;;;5053550;28;20438;-79
2020/12/12 11:05:17;;;;;;;34.50;29.77;;;4.50;99.90;;;;;;5054580;28;20507;-79
2020/12/12 11:07:50;;;;;;;36.40;30.60;;;4.50;99.90;;;;;;5053522;28;20449;-79
2020/12/12 11:10:18;;;;;;;34.93;30.17;;;4.50;99.90;;;;;;5056323;28;20466;-80
2020/12/12 11:12:46;;;;;;;31.93;28.50;;;4.50;99.90;;;;;;5057201;28;21006;-80
2020/12/12 11:15:14;;;;;;;34.17;30.20;;;4.60;99.90;;;;;;5058202;28;20431;-80
2020/12/12 11:17:43;;;;;;;39.73;29.60;;;4.60;99.90;;;;;;5058109;28;20477;-80
2020/12/12 11:20:11;;;;;;;37.13;29.20;;;4.60;99.90;;;;;;5057222;28;20492;-80
2020/12/12 11:22:38;;;;;;;35.33;29.53;;;4.60;99.90;;;;;;5056538;28;20450;-80
2020/12/12 11:25:06;;;;;;;37.77;29.90;;;4.60;99.90;;;;;;5056385;28;20460;-80
2020/12/12 11:27:34;;;;;;;33.77;27.67;;;4.70;99.90;;;;;;5091238;28;21010;-80
2020/12/12 11:30:04;;;;;;;32.73;28.90;;;4.70;99.90;;;;;;5056784;28;20453;-80
2020/12/12 11:32:32;;;;;;;32.63;29.00;;;4.80;99.90;;;;;;5057555;28;20458;-80
2020/12/12 11:35:06;;;;;;;34.90;28.07;;;4.70;99.90;;;;;;5057014;28;20479;-80
2020/12/12 11:37:50;;;;;;;35.90;27.97;;;4.80;99.90;;;;;;5057203;28;20453;-80
2020/12/12 11:40:21;;;;;;;34.93;28.83;;;4.80;99.90;;;;;;5057858;28;20470;-80
2020/12/12 11:45:47;;;;;;;32.87;27.40;;;4.80;99.90;;;;;;5056218;28;20552;-80
2020/12/12 11:48:14;;;;;;;34.27;27.13;;;4.90;99.90;;;;;;5053831;28;20509;-80
2020/12/12 11:50:41;;;;;;;33.50;28.80;;;4.90;99.90;;;;;;5054743;28;20466;-80
2020/12/12 11:53:10;;;;;;;38.13;29.50;;;4.90;99.90;;;;;;5058439;28;20462;-80
2020/12/12 11:55:37;;;;;;;38.40;29.90;;;4.90;99.90;;;;;;5058642;28;20793;-81
2020/12/12 11:58:04;;;;;;;36.50;29.30;;;5.00;99.90;;;;;;5062081;28;20454;-81
2020/12/12 12:00:31;;;;;;;33.37;27.07;;;5.00;99.90;;;;;;5066579;28;20498;-80
2020/12/12 12:02:59;;;;;;;31.83;26.60;;;5.00;99.90;;;;;;5060659;28;20939;-80
2020/12/12 12:05:42;;;;;;;34.47;29.33;;;5.00;99.90;;;;;;5059416;28;20438;-80
2020/12/12 12:08:20;;;;;;;32.90;27.57;;;5.10;99.90;;;;;;5060691;28;20434;-80
2020/12/12 12:10:56;;;;;;;30.50;26.63;;;5.10;99.90;;;;;;5060944;28;20481;-80
2020/12/12 12:13:24;;;;;;;40.57;30.93;;;5.10;99.90;;;;;;5093236;28;20469;-80
2020/12/12 12:15:52;;;;;;;31.23;27.17;;;5.10;99.90;;;;;;5060806;28;20808;-80
2020/12/12 12:18:28;;;;;;;30.60;25.63;;;5.20;99.90;;;;;;5059480;28;20452;-80
2020/12/12 12:20:57;;;;;;;32.53;26.93;;;5.20;99.90;;;;;;5059437;28;20457;-80
2020/12/12 12:23:25;;;;;;;29.63;25.90;;;5.20;99.90;;;;;;5059670;28;20446;-80
2020/12/12 12:25:53;;;;;;;31.80;26.47;;;5.30;99.90;;;;;;5060038;28;20978;-80
2020/12/12 12:28:21;;;;;;;32.07;26.90;;;5.30;99.90;;;;;;5061094;28;20450;-80
2020/12/12 12:30:49;;;;;;;30.07;24.87;;;5.30;99.90;;;;;;5059039;28;20497;-80
2020/12/12 12:33:16;;;;;;;30.77;25.33;;;5.30;99.90;;;;;;5061558;28;20552;-80
2020/12/12 12:35:44;;;;;;;32.33;24.67;;;5.30;99.90;;;;;;5093609;28;20450;-80
2020/12/12 12:38:11;;;;;;;29.43;26.23;;;5.40;99.90;;;;;;5060796;28;20862;-81
2020/12/12 12:40:39;;;;;;;34.03;26.10;;;5.40;99.90;;;;;;5059857;28;20473;-80
2020/12/12 12:43:06;;;;;;;28.87;24.27;;;5.40;99.90;;;;;;5061759;28;20813;-81
2020/12/12 12:45:34;;;;;;;31.13;26.80;;;5.40;99.90;;;;;;5094176;28;20438;-81
2020/12/12 12:48:01;;;;;;;41.00;32.13;;;5.40;99.90;;;;;;5059165;28;20454;-80
2020/12/12 12:50:36;;;;;;;27.97;23.37;;;5.40;99.90;;;;;;5058171;28;20470;-80